Time;durP1;ratioP1;P1;durP2;ratioP2;P2;SDS_P1;SDS_P2;PMS_P1;PMS_P2;Temp;Humidity;BMP_temperature;BMP_pressure;BME280_temperature;BME280_humidity;BME280_pressure;Samples;Min_cycle;Max_cycle;Signal;HPM_P1;HPM_P2
2023/03/07 00:02:09;;;;;;;27.63;15.48;;;;;;;;;;5033138;28;20028;-63
2023/03/07 00:04:35;;;;;;;25.80;14.88;;;;;;;;;;5045974;28;20499;-64
2023/03/07 00:07:00;;;;;;;21.10;14.43;;;;;;;;;;5033082;28;20056;-64
2023/03/07 00:09:26;;;;;;;28.85;13.93;;;;;;;;;;5050638;28;20017;-64
2023/03/07 00:11:51;;;;;;;19.45;13.38;;;;;;;;;;5051925;28;20032;-64
2023/03/07 00:14:17;;;;;;;16.35;13.20;;;;;;;;;;5052193;28;20114;-64
2023/03/07 00:16:45;;;;;;;21.50;12.77;;;;;;;;;;5052401;28;20460;-64
2023/03/07 00:19:13;;;;;;;24.13;13.38;;;;;;;;;;5051419;28;20029;-64
2023/03/07 00:21:38;;;;;;;18.25;13.15;;;;;;;;;;5052254;28;20025;-64
2023/03/07 00:24:03;;;;;;;16.27;12.75;;;;;;;;;;5051607;28;20098;-64
2023/03/07 00:26:29;;;;;;;17.17;12.45;;;;;;;;;;5052034;28;20037;-64
2023/03/07 00:28:54;;;;;;;16.33;11.85;;;;;;;;;;5033307;28;20025;-64
2023/03/07 00:31:20;;;;;;;15.50;13.27;;;;;;;;;;5044738;28;20098;-64
2023/03/07 00:33:45;;;;;;;19.60;12.80;;;;;;;;;;5033099;28;20025;-63
2023/03/07 00:36:11;;;;;;;14.65;11.18;;;;;;;;;;5032308;28;20029;-64
2023/03/07 00:38:36;;;;;;;15.32;11.93;;;;;;;;;;5033562;28;20037;-64
2023/03/07 00:41:05;;;;;;;16.23;11.10;;;;;;;;;;5043973;28;20029;-64
2023/03/07 00:43:31;;;;;;;15.18;11.73;;;;;;;;;;5039817;28;20025;-63
2023/03/07 00:45:56;;;;;;;17.35;11.77;;;;;;;;;;5039487;28;20119;-64
2023/03/07 00:48:22;;;;;;;18.60;10.65;;;;;;;;;;5032210;28;20456;-65
2023/03/07 00:50:47;;;;;;;15.52;10.68;;;;;;;;;;5035134;28;20032;-64
2023/03/07 00:53:13;;;;;;;17.60;10.40;;;;;;;;;;5036024;28;20029;-64
2023/03/07 00:55:38;;;;;;;15.32;11.25;;;;;;;;;;5035934;28;20446;-64
2023/03/07 00:58:03;;;;;;;15.80;10.73;;;;;;;;;;5035702;28;20017;-64
2023/03/07 01:00:29;;;;;;;14.98;10.02;;;;;;;;;;5047878;28;20029;-64
2023/03/07 01:02:56;;;;;;;13.50;9.98;;;;;;;;;;5036512;28;20115;-64
2023/03/07 01:05:21;;;;;;;12.10;9.77;;;;;;;;;;5050187;28;20025;-64
2023/03/07 01:07:47;;;;;;;19.27;11.60;;;;;;;;;;5055705;28;20112;-63
2023/03/07 01:10:12;;;;;;;14.43;9.82;;;;;;;;;;5041425;28;20036;-64
2023/03/07 01:12:38;;;;;;;15.98;10.00;;;;;;;;;;5054260;28;20089;-64
2023/03/07 01:15:04;;;;;;;11.25;8.95;;;;;;;;;;5055233;28;20013;-63
2023/03/07 01:17:29;;;;;;;12.82;10.38;;;;;;;;;;5041724;28;20025;-63
2023/03/07 01:19:54;;;;;;;15.32;10.82;;;;;;;;;;5036135;28;20341;-63
2023/03/07 01:22:20;;;;;;;16.98;11.57;;;;;;;;;;5049230;28;20029;-63
2023/03/07 01:24:45;;;;;;;15.88;10.02;;;;;;;;;;5054948;28;20025;-63
2023/03/07 01:27:10;;;;;;;15.27;11.32;;;;;;;;;;5054696;28;20032;-64
2023/03/07 01:29:35;;;;;;;15.75;11.50;;;;;;;;;;5052386;28;20029;-64
2023/03/07 01:32:01;;;;;;;18.20;11.00;;;;;;;;;;5054960;28;20378;-64
2023/03/07 01:34:26;;;;;;;17.52;11.90;;;;;;;;;;5050577;28;20022;-64
2023/03/07 01:36:51;;;;;;;13.90;11.52;;;;;;;;;;5052832;28;20128;-64
2023/03/07 01:39:16;;;;;;;17.73;12.95;;;;;;;;;;5052522;28;20013;-63
2023/03/07 01:41:43;;;;;;;20.60;13.90;;;;;;;;;;5040050;28;20056;-63
2023/03/07 01:44:34;;;;;;;21.98;14.80;;;;;;;;;;5036093;28;20034;-64
2023/03/07 01:47:00;;;;;;;23.63;17.17;;;;;;;;;;5027484;28;20037;-64
2023/03/07 01:49:25;;;;;;;22.50;15.73;;;;;;;;;;5035756;28;20075;-64
2023/03/07 01:51:57;;;;;;;20.40;16.40;;;;;;;;;;5035794;28;20017;-64
2023/03/07 01:54:23;;;;;;;27.38;17.92;;;;;;;;;;5034810;28;20036;-64
2023/03/07 01:56:49;;;;;;;23.20;17.50;;;;;;;;;;5034356;28;20037;-64
2023/03/07 01:59:17;;;;;;;26.20;18.88;;;;;;;;;;5047441;28;20070;-64
2023/03/07 02:01:43;;;;;;;26.80;20.10;;;;;;;;;;5036066;28;20423;-64
2023/03/07 02:04:14;;;;;;;30.33;19.92;;;;;;;;;;5054091;28;20040;-64
2023/03/07 02:06:40;;;;;;;24.52;18.83;;;;;;;;;;5038266;28;20057;-64
2023/03/07 02:09:12;;;;;;;27.80;20.50;;;;;;;;;;5037226;28;20029;-64
2023/03/07 02:11:40;;;;;;;27.90;20.40;;;;;;;;;;5053705;28;20029;-64
2023/03/07 02:14:06;;;;;;;28.30;18.80;;;;;;;;;;5052161;28;20387;-63
2023/03/07 02:16:31;;;;;;;25.80;19.95;;;;;;;;;;5042241;28;20025;-63
2023/03/07 02:18:56;;;;;;;25.50;19.67;;;;;;;;;;5053945;28;20037;-63
2023/03/07 02:21:21;;;;;;;29.80;19.00;;;;;;;;;;5053852;28;20032;-64
2023/03/07 02:23:53;;;;;;;28.92;19.15;;;;;;;;;;5053737;28;20395;-63
2023/03/07 02:26:27;;;;;;;32.92;20.25;;;;;;;;;;5053934;28;20025;-63
2023/03/07 02:28:52;;;;;;;;;;;;;;;;;;5054365;28;20029;-63
2023/03/07 02:31:18;;;;;;;25.42;18.27;;;;;;;;;;5043174;28;19920;-64
2023/03/07 02:33:43;;;;;;;31.20;19.65;;;;;;;;;;5036649;28;20017;-64
2023/03/07 02:36:10;;;;;;;23.50;18.77;;;;;;;;;;5052618;28;20033;-64
2023/03/07 02:38:36;;;;;;;25.98;19.33;;;;;;;;;;5051838;28;20017;-64
2023/03/07 02:41:03;;;;;;;32.10;20.48;;;;;;;;;;5053600;28;20033;-64
2023/03/07 02:43:28;;;;;;;27.25;19.48;;;;;;;;;;5052316;28;20025;-64
2023/03/07 02:45:54;;;;;;;30.95;20.35;;;;;;;;;;5051765;28;20029;-64
2023/03/07 02:48:19;;;;;;;31.95;20.33;;;;;;;;;;5051765;28;20056;-64
2023/03/07 02:50:46;;;;;;;29.77;19.08;;;;;;;;;;5052882;28;20537;-64
2023/03/07 02:53:11;;;;;;;30.30;20.33;;;;;;;;;;5051782;28;20024;-64
2023/03/07 02:55:36;;;;;;;28.98;20.60;;;;;;;;;;5052547;28;20115;-64
2023/03/07 02:58:02;;;;;;;32.55;20.80;;;;;;;;;;5051492;28;20024;-63
2023/03/07 03:00:27;;;;;;;26.50;20.20;;;;;;;;;;5052662;28;20044;-63
2023/03/07 03:02:52;;;;;;;28.77;20.60;;;;;;;;;;5051127;28;20026;-63
2023/03/07 03:05:17;;;;;;;24.92;19.83;;;;;;;;;;5053464;28;20517;-64
2023/03/07 03:07:43;;;;;;;26.52;20.27;;;;;;;;;;5049415;28;20021;-63
2023/03/07 03:10:08;;;;;;;31.15;21.23;;;;;;;;;;5053294;28;20065;-63
2023/03/07 03:12:33;;;;;;;32.08;20.25;;;;;;;;;;5050082;28;20431;-63
2023/03/07 03:14:59;;;;;;;25.48;20.45;;;;;;;;;;5044514;28;20033;-63
2023/03/07 03:17:24;;;;;;;28.25;19.85;;;;;;;;;;5033604;28;20104;-63
2023/03/07 03:19:49;;;;;;;28.85;20.83;;;;;;;;;;5032896;28;20030;-64
2023/03/07 03:22:14;;;;;;;33.83;21.25;;;;;;;;;;5047129;28;20147;-64
2023/03/07 03:24:40;;;;;;;30.67;22.15;;;;;;;;;;5052194;28;20029;-64
2023/03/07 03:27:06;;;;;;;30.08;22.08;;;;;;;;;;5051735;28;20021;-63
2023/03/07 03:29:31;;;;;;;29.58;20.63;;;;;;;;;;5044645;28;20021;-63
2023/03/07 03:31:56;;;;;;;29.38;21.38;;;;;;;;;;5034001;28;20025;-63
2023/03/07 03:34:22;;;;;;;28.30;20.92;;;;;;;;;;5033556;28;20018;-63
2023/03/07 03:36:47;;;;;;;26.65;21.10;;;;;;;;;;5037418;28;20020;-64
2023/03/07 03:39:13;;;;;;;29.23;20.80;;;;;;;;;;5036715;28;20032;-64
2023/03/07 03:41:39;;;;;;;30.02;22.50;;;;;;;;;;5049819;28;20474;-63
2023/03/07 03:44:04;;;;;;;31.60;21.05;;;;;;;;;;5045676;28;20140;-63
2023/03/07 03:46:29;;;;;;;28.92;22.13;;;;;;;;;;5049498;28;20029;-63
2023/03/07 03:48:54;;;;;;;32.40;22.45;;;;;;;;;;5046001;28;20037;-63
2023/03/07 03:51:20;;;;;;;38.42;21.88;;;;;;;;;;5040201;28;20379;-63
2023/03/07 03:53:45;;;;;;;32.65;22.40;;;;;;;;;;5036599;28;20140;-63
2023/03/07 03:56:12;;;;;;;28.83;22.98;;;;;;;;;;5039538;28;20115;-63
2023/03/07 03:58:37;;;;;;;29.33;21.52;;;;;;;;;;5041243;28;20029;-63
2023/03/07 04:01:04;;;;;;;29.02;22.00;;;;;;;;;;5035024;28;20086;-63
2023/03/07 04:03:33;;;;;;;33.88;22.70;;;;;;;;;;5031148;28;20400;-63
2023/03/07 04:06:02;;;;;;;31.02;21.05;;;;;;;;;;5046867;28;20031;-63
2023/03/07 04:08:27;;;;;;;32.15;21.42;;;;;;;;;;5033846;28;20427;-63
2023/03/07 04:10:52;;;;;;;30.05;21.98;;;;;;;;;;5049199;28;20013;-63
2023/03/07 04:13:18;;;;;;;32.78;22.05;;;;;;;;;;5052205;28;20052;-63
2023/03/07 04:15:43;;;;;;;29.67;21.52;;;;;;;;;;5051586;28;20037;-62
2023/03/07 04:18:08;;;;;;;37.75;21.20;;;;;;;;;;5044814;28;20029;-63
2023/03/07 04:20:33;;;;;;;33.05;21.52;;;;;;;;;;5032858;28;20026;-63
2023/03/07 04:22:59;;;;;;;29.88;21.65;;;;;;;;;;5032409;28;20037;-63
2023/03/07 04:25:24;;;;;;;32.13;22.77;;;;;;;;;;5039483;28;20361;-64
2023/03/07 04:27:49;;;;;;;34.92;22.35;;;;;;;;;;5044231;28;20021;-64
2023/03/07 04:30:15;;;;;;;26.67;21.33;;;;;;;;;;5056112;28;20387;-62
2023/03/07 04:32:41;;;;;;;35.75;22.50;;;;;;;;;;5055857;28;20110;-65
2023/03/07 04:35:06;;;;;;;30.58;22.23;;;;;;;;;;5055418;28;20025;-65
2023/03/07 04:37:32;;;;;;;35.20;22.98;;;;;;;;;;5056095;28;20030;-65
2023/03/07 04:39:57;;;;;;;33.70;21.35;;;;;;;;;;5042173;28;20033;-64
2023/03/07 04:42:22;;;;;;;34.42;21.95;;;;;;;;;;5055179;28;20024;-64
2023/03/07 04:44:47;;;;;;;30.55;23.95;;;;;;;;;;5054965;28;20044;-64
2023/03/07 04:47:13;;;;;;;30.55;22.30;;;;;;;;;;5055584;28;20138;-64
2023/03/07 04:49:38;;;;;;;34.20;23.27;;;;;;;;;;5055051;28;20083;-64
2023/03/07 04:52:04;;;;;;;31.17;22.88;;;;;;;;;;5053815;28;20475;-64
2023/03/07 04:54:29;;;;;;;35.13;24.02;;;;;;;;;;5053323;28;20035;-64
2023/03/07 04:56:55;;;;;;;31.88;22.73;;;;;;;;;;5054250;28;20033;-64
2023/03/07 04:59:20;;;;;;;37.33;23.33;;;;;;;;;;5054731;28;20021;-64
2023/03/07 05:01:45;;;;;;;31.77;23.25;;;;;;;;;;5054201;28;20056;-64
2023/03/07 05:04:10;;;;;;;32.28;22.27;;;;;;;;;;5053734;28;20025;-64
2023/03/07 05:06:36;;;;;;;29.70;21.70;;;;;;;;;;5053536;28;20472;-64
2023/03/07 05:09:01;;;;;;;38.97;24.63;;;;;;;;;;5054856;28;20024;-64
2023/03/07 05:11:26;;;;;;;31.63;22.95;;;;;;;;;;5054053;28;20039;-64
2023/03/07 05:13:51;;;;;;;30.88;22.50;;;;;;;;;;5055071;28;20036;-64
2023/03/07 05:16:17;;;;;;;39.42;25.15;;;;;;;;;;5053701;28;20383;-64
2023/03/07 05:18:42;;;;;;;33.88;21.55;;;;;;;;;;5054961;28;20032;-64
2023/03/07 05:21:07;;;;;;;36.13;21.88;;;;;;;;;;5053778;28;20440;-64
2023/03/07 05:23:33;;;;;;;37.20;22.60;;;;;;;;;;5054095;28;20096;-64
2023/03/07 05:25:58;;;;;;;31.20;22.40;;;;;;;;;;5053010;28;20025;-64
2023/03/07 05:28:23;;;;;;;39.85;22.27;;;;;;;;;;5055302;28;20391;-64
2023/03/07 05:30:49;;;;;;;34.58;23.67;;;;;;;;;;5036502;28;20439;-64
2023/03/07 05:33:14;;;;;;;31.38;23.02;;;;;;;;;;5035422;28;20063;-65
2023/03/07 05:35:39;;;;;;;34.17;23.10;;;;;;;;;;5035682;28;20040;-64
2023/03/07 05:38:05;;;;;;;39.20;22.63;;;;;;;;;;5036277;28;20104;-65
2023/03/07 05:40:30;;;;;;;34.47;23.40;;;;;;;;;;5036483;28;20037;-64
2023/03/07 05:42:56;;;;;;;33.10;23.13;;;;;;;;;;5047161;28;20079;-65
2023/03/07 05:45:21;;;;;;;31.73;21.77;;;;;;;;;;5037874;28;20033;-64
2023/03/07 05:47:46;;;;;;;30.55;22.40;;;;;;;;;;5039611;28;20016;-65
2023/03/07 05:50:12;;;;;;;35.05;22.67;;;;;;;;;;5041716;28;20017;-65
2023/03/07 05:52:38;;;;;;;30.55;22.52;;;;;;;;;;5054362;28;20083;-65
2023/03/07 05:55:04;;;;;;;31.80;22.17;;;;;;;;;;5054551;28;20349;-65
2023/03/07 05:57:29;;;;;;;33.67;22.60;;;;;;;;;;5054129;28;20052;-64
2023/03/07 05:59:55;;;;;;;34.10;22.83;;;;;;;;;;5054102;28;20024;-64
2023/03/07 06:02:20;;;;;;;33.63;22.48;;;;;;;;;;5043695;28;20029;-64
2023/03/07 06:04:45;;;;;;;32.00;22.60;;;;;;;;;;5034857;28;20030;-64
2023/03/07 06:07:11;;;;;;;32.15;21.70;;;;;;;;;;5045389;28;20357;-64
2023/03/07 06:09:36;;;;;;;31.40;20.38;;;;;;;;;;5043702;28;20118;-64
2023/03/07 06:12:01;;;;;;;26.25;19.60;;;;;;;;;;5054327;28;20063;-64
2023/03/07 06:14:27;;;;;;;34.65;20.42;;;;;;;;;;5053725;28;20040;-65
2023/03/07 06:16:52;;;;;;;32.38;20.45;;;;;;;;;;5044284;28;20101;-65
2023/03/07 06:19:17;;;;;;;25.20;18.90;;;;;;;;;;5050086;28;20079;-65
2023/03/07 06:21:42;;;;;;;28.27;20.05;;;;;;;;;;5035521;28;20029;-65
2023/03/07 06:24:08;;;;;;;27.40;19.85;;;;;;;;;;5035364;28;20018;-65
2023/03/07 06:26:33;;;;;;;30.20;20.10;;;;;;;;;;5034486;28;20026;-65
2023/03/07 06:28:59;;;;;;;29.35;19.85;;;;;;;;;;5038617;28;20028;-65
2023/03/07 06:31:24;;;;;;;29.40;20.63;;;;;;;;;;5044083;28;20037;-65
2023/03/07 06:33:50;;;;;;;27.27;19.35;;;;;;;;;;5034739;28;20025;-64
2023/03/07 06:36:16;;;;;;;29.33;19.40;;;;;;;;;;5034176;28;20357;-65
2023/03/07 06:38:41;;;;;;;26.80;19.75;;;;;;;;;;5037963;28;20028;-65
2023/03/07 06:41:07;;;;;;;28.83;19.65;;;;;;;;;;5053599;28;20025;-65
2023/03/07 06:43:32;;;;;;;29.55;19.67;;;;;;;;;;5046495;28;20030;-65
2023/03/07 06:45:58;;;;;;;29.15;19.58;;;;;;;;;;5035005;28;20043;-65
2023/03/07 06:48:23;;;;;;;26.30;19.15;;;;;;;;;;5035938;28;20423;-65
2023/03/07 06:50:48;;;;;;;27.42;18.88;;;;;;;;;;5034323;28;20028;-64
2023/03/07 06:53:14;;;;;;;29.08;20.13;;;;;;;;;;5034877;28;20419;-65
2023/03/07 06:55:39;;;;;;;34.35;20.70;;;;;;;;;;5034378;28;20025;-65
2023/03/07 06:58:04;;;;;;;25.02;18.33;;;;;;;;;;5035698;28;20116;-65
2023/03/07 07:00:30;;;;;;;29.25;19.05;;;;;;;;;;5034629;28;20365;-64
2023/03/07 07:02:55;;;;;;;24.90;18.90;;;;;;;;;;5035534;28;20028;-65
2023/03/07 07:05:20;;;;;;;28.85;19.17;;;;;;;;;;5034928;28;20454;-65
2023/03/07 07:07:46;;;;;;;25.80;18.02;;;;;;;;;;5038313;28;20025;-65
2023/03/07 07:10:11;;;;;;;28.63;18.38;;;;;;;;;;5044587;28;20032;-65
2023/03/07 07:12:36;;;;;;;23.75;18.20;;;;;;;;;;5036683;28;20025;-65
2023/03/07 07:15:04;;;;;;;25.42;18.73;;;;;;;;;;5045604;28;20033;-65
2023/03/07 07:17:29;;;;;;;27.40;18.90;;;;;;;;;;5031080;28;20022;-65
2023/03/07 07:19:55;;;;;;;22.83;16.20;;;;;;;;;;5033546;28;20026;-65
2023/03/07 07:22:21;;;;;;;24.08;17.27;;;;;;;;;;5033990;28;20025;-65
2023/03/07 07:24:47;;;;;;;23.80;16.88;;;;;;;;;;5041614;28;20044;-65
2023/03/07 07:27:12;;;;;;;26.88;17.90;;;;;;;;;;5039246;28;20029;-65
2023/03/07 07:29:37;;;;;;;27.55;16.63;;;;;;;;;;5033787;28;20025;-65
2023/03/07 07:32:03;;;;;;;23.20;15.82;;;;;;;;;;5034727;28;20468;-65
2023/03/07 07:34:28;;;;;;;25.55;15.65;;;;;;;;;;5034025;28;20105;-65
2023/03/07 07:36:53;;;;;;;24.75;15.50;;;;;;;;;;5034032;28;20026;-65
2023/03/07 07:39:20;;;;;;;29.38;16.73;;;;;;;;;;5037689;28;20389;-65
2023/03/07 07:41:46;;;;;;;20.75;15.02;;;;;;;;;;5034313;28;20468;-64
2023/03/07 07:44:11;;;;;;;21.27;15.75;;;;;;;;;;5051377;28;20020;-65
2023/03/07 07:46:37;;;;;;;22.30;16.05;;;;;;;;;;5051252;28;20028;-65
2023/03/07 07:49:02;;;;;;;21.52;15.63;;;;;;;;;;5049798;28;20103;-65
2023/03/07 07:51:27;;;;;;;20.33;15.57;;;;;;;;;;5047745;28;20024;-65
2023/03/07 07:53:53;;;;;;;21.73;15.20;;;;;;;;;;5050411;28;20135;-65
2023/03/07 07:56:18;;;;;;;21.50;15.73;;;;;;;;;;5040950;28;20561;-63
2023/03/07 07:58:43;;;;;;;22.75;15.65;;;;;;;;;;5047075;28;20090;-63
2023/03/07 08:01:17;;;;;;;20.38;15.23;;;;;;;;;;5038749;28;20025;-62
2023/03/07 08:03:42;;;;;;;23.48;14.95;;;;;;;;;;5044075;28;20031;-61
2023/03/07 08:06:07;;;;;;;21.10;15.95;;;;;;;;;;5042443;28;20097;-61
2023/03/07 08:08:33;;;;;;;22.00;15.93;;;;;;;;;;5037404;28;20125;-65
2023/03/07 08:10:58;;;;;;;24.63;16.90;;;;;;;;;;5046271;28;20026;-65
2023/03/07 08:13:24;;;;;;;24.85;16.67;;;;;;;;;;5041429;28;20104;-66
2023/03/07 08:15:50;;;;;;;23.45;17.00;;;;;;;;;;5036220;28;20044;-66
2023/03/07 08:18:15;;;;;;;23.77;18.17;;;;;;;;;;5041027;28;20025;-65
2023/03/07 08:20:40;;;;;;;26.50;17.38;;;;;;;;;;5051383;28;20573;-66
2023/03/07 08:23:06;;;;;;;23.27;17.70;;;;;;;;;;5043457;28;20037;-64
2023/03/07 08:25:31;;;;;;;24.88;17.58;;;;;;;;;;5041492;28;20025;-63
2023/03/07 08:27:57;;;;;;;23.73;16.50;;;;;;;;;;5038104;28;20030;-63
2023/03/07 08:30:23;;;;;;;26.33;16.92;;;;;;;;;;5042752;28;20040;-64
2023/03/07 08:32:49;;;;;;;21.92;16.27;;;;;;;;;;5044597;28;20036;-62
2023/03/07 08:35:15;;;;;;;25.95;18.45;;;;;;;;;;5047671;28;20108;-62
2023/03/07 08:37:40;;;;;;;29.63;18.95;;;;;;;;;;5047945;28;20104;-62
2023/03/07 08:40:05;;;;;;;27.52;18.73;;;;;;;;;;5050888;28;20017;-63
2023/03/07 08:42:31;;;;;;;25.90;18.17;;;;;;;;;;5049514;28;20029;-63
2023/03/07 08:44:56;;;;;;;27.08;17.25;;;;;;;;;;5046735;28;20036;-64
2023/03/07 08:47:21;;;;;;;21.38;15.82;;;;;;;;;;5034799;28;20472;-65
2023/03/07 08:49:47;;;;;;;27.27;20.05;;;;;;;;;;5039467;28;20017;-64
2023/03/07 08:52:15;;;;;;;29.25;19.13;;;;;;;;;;5044794;28;20032;-64
2023/03/07 08:54:40;;;;;;;27.27;18.85;;;;;;;;;;5040688;28;20447;-65
2023/03/07 08:57:05;;;;;;;22.42;17.38;;;;;;;;;;5036283;28;20101;-66
2023/03/07 08:59:31;;;;;;;29.00;18.67;;;;;;;;;;5040837;28;20151;-65
2023/03/07 09:01:56;;;;;;;31.65;18.70;;;;;;;;;;5037328;28;20025;-65
2023/03/07 09:04:21;;;;;;;25.75;18.40;;;;;;;;;;5039259;28;20017;-65
2023/03/07 09:06:47;;;;;;;20.83;16.27;;;;;;;;;;5035257;28;20025;-65
2023/03/07 09:09:12;;;;;;;27.20;17.17;;;;;;;;;;5038022;28;20113;-65
2023/03/07 09:11:37;;;;;;;26.30;17.35;;;;;;;;;;5034660;28;20061;-65
2023/03/07 09:14:03;;;;;;;25.52;17.65;;;;;;;;;;5050118;28;20029;-66
2023/03/07 09:16:28;;;;;;;22.20;16.33;;;;;;;;;;5055249;28;20079;-65
2023/03/07 09:18:53;;;;;;;20.40;15.25;;;;;;;;;;5040811;28;20024;-65
2023/03/07 09:21:19;;;;;;;19.23;14.93;;;;;;;;;;5042699;28;20494;-64
2023/03/07 09:23:44;;;;;;;22.90;15.00;;;;;;;;;;5053929;28;20035;-64
2023/03/07 09:26:09;;;;;;;21.10;15.00;;;;;;;;;;5054788;28;20376;-64
2023/03/07 09:28:35;;;;;;;21.13;16.20;;;;;;;;;;5054092;28;20427;-65
2023/03/07 09:31:05;;;;;;;17.77;14.73;;;;;;;;;;5055070;28;20033;-65
2023/03/07 09:33:30;;;;;;;20.42;14.82;;;;;;;;;;5053220;28;20044;-65
2023/03/07 09:35:56;;;;;;;19.75;14.75;;;;;;;;;;5046963;28;20017;-65
2023/03/07 09:38:21;;;;;;;19.90;14.68;;;;;;;;;;5035848;28;20411;-65
2023/03/07 09:40:47;;;;;;;19.23;13.75;;;;;;;;;;5034613;28;20037;-64
2023/03/07 09:43:19;;;;;;;21.92;14.27;;;;;;;;;;5035388;28;20041;-65
2023/03/07 09:45:44;;;;;;;25.52;14.63;;;;;;;;;;5034846;28;20030;-65
2023/03/07 09:48:19;;;;;;;22.88;14.02;;;;;;;;;;5034449;28;20400;-65
2023/03/07 09:50:47;;;;;;;19.17;13.90;;;;;;;;;;5035341;28;20032;-65
2023/03/07 09:53:21;;;;;;;19.88;14.38;;;;;;;;;;5048175;28;20025;-65
2023/03/07 09:55:50;;;;;;;22.50;14.93;;;;;;;;;;5036306;28;20064;-65
2023/03/07 09:58:17;;;;;;;17.48;13.50;;;;;;;;;;5046057;28;20103;-65
2023/03/07 10:00:44;;;;;;;21.13;13.70;;;;;;;;;;5042808;28;20028;-64
2023/03/07 10:03:19;;;;;;;20.20;13.38;;;;;;;;;;5040419;28;20495;-64
2023/03/07 10:05:47;;;;;;;17.42;13.43;;;;;;;;;;5053893;28;20108;-64
2023/03/07 10:08:15;;;;;;;16.60;12.27;;;;;;;;;;5039217;28;20140;-65
2023/03/07 10:10:46;;;;;;;19.50;13.00;;;;;;;;;;5048342;28;20048;-64
2023/03/07 10:13:20;;;;;;;26.23;13.90;;;;;;;;;;5050558;28;20047;-64
2023/03/07 10:15:56;;;;;;;15.40;11.73;;;;;;;;;;5050845;28;20025;-63
2023/03/07 10:18:47;;;;;;;16.08;13.07;;;;;;;;;;5051383;28;20021;-63
2023/03/07 10:21:48;;;;;;;25.48;13.77;;;;;;;;;;5081851;28;20021;-64
2023/03/07 10:24:16;;;;;;;18.92;13.95;;;;;;;;;;5050152;28;20036;-64
2023/03/07 10:27:03;;;;;;;20.77;14.07;;;;;;;;;;5050946;28;20120;-64
2023/03/07 10:29:33;;;;;;;17.80;12.73;;;;;;;;;;5048076;28;20021;-64
2023/03/07 10:32:07;;;;;;;26.02;14.35;;;;;;;;;;5046642;28;20020;-64
2023/03/07 10:34:32;;;;;;;18.67;13.77;;;;;;;;;;5034662;28;20084;-64
2023/03/07 10:37:09;;;;;;;20.17;13.20;;;;;;;;;;5038483;28;20802;-64
2023/03/07 10:39:37;;;;;;;15.75;12.43;;;;;;;;;;5041715;28;20029;-64
2023/03/07 10:42:03;;;;;;;17.67;9.55;;;;;;;;;;5049084;28;20112;-64
2023/03/07 10:44:31;;;;;;;12.13;8.98;;;;;;;;;;5051160;28;20106;-64
2023/03/07 10:46:57;;;;;;;11.23;7.75;;;;;;;;;;5051177;28;20029;-64
2023/03/07 10:49:25;;;;;;;9.93;7.50;;;;;;;;;;5050056;28;20331;-64
2023/03/07 10:52:05;;;;;;;10.70;7.70;;;;;;;;;;5051229;28;20498;-64
2023/03/07 10:54:35;;;;;;;10.02;6.80;;;;;;;;;;5043862;28;20033;-64
2023/03/07 10:57:07;;;;;;;11.48;8.20;;;;;;;;;;5047222;28;20079;-63
2023/03/07 10:59:33;;;;;;;21.35;7.63;;;;;;;;;;5048251;28;20037;-63
2023/03/07 11:02:00;;;;;;;20.80;7.25;;;;;;;;;;5051234;28;20425;-64
2023/03/07 11:04:39;;;;;;;11.15;7.38;;;;;;;;;;5050916;28;20055;-64
2023/03/07 11:07:21;;;;;;;12.27;7.63;;;;;;;;;;5041864;28;20021;-64
2023/03/07 11:09:47;;;;;;;10.77;6.95;;;;;;;;;;5041014;28;20551;-64
2023/03/07 11:12:17;;;;;;;9.45;7.90;;;;;;;;;;5051676;28;20133;-64
2023/03/07 11:14:45;;;;;;;12.95;8.40;;;;;;;;;;5050644;28;20549;-64
2023/03/07 11:17:34;;;;;;;10.38;8.02;;;;;;;;;;5050396;28;20029;-64
2023/03/07 11:20:16;;;;;;;10.35;7.82;;;;;;;;;;5044187;28;20094;-64
2023/03/07 11:22:42;;;;;;;11.27;7.55;;;;;;;;;;5050015;28;20124;-63
2023/03/07 11:25:07;;;;;;;15.50;8.30;;;;;;;;;;5050529;28;20116;-64
2023/03/07 11:27:35;;;;;;;12.25;7.90;;;;;;;;;;5036772;28;20044;-63
2023/03/07 11:30:26;;;;;;;10.93;8.57;;;;;;;;;;5047649;28;20032;-64
2023/03/07 11:33:07;;;;;;;11.70;8.25;;;;;;;;;;5044595;28;20067;-64
2023/03/07 11:35:32;;;;;;;11.20;9.02;;;;;;;;;;5032580;28;20028;-64
2023/03/07 11:38:06;;;;;;;11.68;8.93;;;;;;;;;;5042802;28;20013;-64
2023/03/07 11:40:34;;;;;;;14.02;10.15;;;;;;;;;;5046923;28;20060;-64
2023/03/07 11:43:08;;;;;;;11.93;9.77;;;;;;;;;;5036306;28;20075;-64
2023/03/07 11:45:33;;;;;;;10.77;8.82;;;;;;;;;;5036347;28;20025;-64
2023/03/07 11:48:13;;;;;;;12.70;9.27;;;;;;;;;;5046542;28;20032;-64
2023/03/07 11:50:40;;;;;;;11.05;9.10;;;;;;;;;;5037476;28;20490;-63
2023/03/07 11:53:05;;;;;;;13.30;8.82;;;;;;;;;;5035221;28;20205;-64
2023/03/07 11:55:34;;;;;;;10.50;7.80;;;;;;;;;;5050663;28;20140;-64
2023/03/07 11:57:59;;;;;;;9.23;6.85;;;;;;;;;;5044927;28;20036;-63
2023/03/07 12:00:33;;;;;;;13.73;8.63;;;;;;;;;;5035392;28;20025;-63
2023/03/07 12:03:08;;;;;;;11.25;7.18;;;;;;;;;;5035202;28;20025;-63
2023/03/07 12:05:33;;;;;;;13.00;7.20;;;;;;;;;;5041759;28;20030;-64
2023/03/07 12:08:17;;;;;;;8.95;6.10;;;;;;;;;;5044267;28;20016;-64
2023/03/07 12:10:48;;;;;;;8.90;6.57;;;;;;;;;;5024228;28;20530;-64
2023/03/07 12:13:20;;;;;;;11.07;6.65;;;;;;;;;;5051067;28;20021;-63
2023/03/07 12:15:48;;;;;;;9.73;6.78;;;;;;;;;;5047516;28;20119;-63
2023/03/07 12:18:19;;;;;;;8.40;5.63;;;;;;;;;;5039139;28;20028;-62
2023/03/07 12:20:48;;;;;;;14.48;6.85;;;;;;;;;;5049882;28;20455;-62
2023/03/07 12:23:17;;;;;;;8.27;5.35;;;;;;;;;;5050022;28;20495;-62
2023/03/07 12:25:50;;;;;;;7.28;4.55;;;;;;;;;;5049241;28;20021;-61
2023/03/07 12:28:26;;;;;;;6.55;4.30;;;;;;;;;;5050611;28;20017;-62
2023/03/07 12:30:54;;;;;;;6.03;4.60;;;;;;;;;;5042575;28;20539;-62
2023/03/07 12:33:26;;;;;;;10.57;6.47;;;;;;;;;;5051255;28;20037;-61
2023/03/07 12:36:00;;;;;;;12.57;10.00;;;;;;;;;;5047489;28;20104;-61
2023/03/07 12:38:26;;;;;;;;;;;;;;;;;;5044386;28;20024;-62
2023/03/07 12:40:56;;;;;;;12.73;9.95;;;;;;;;;;5038757;28;20684;-63
2023/03/07 12:43:26;;;;;;;12.63;10.35;;;;;;;;;;5042461;28;20032;-63
2023/03/07 12:45:56;;;;;;;11.40;8.57;;;;;;;;;;5031074;28;20548;-63
2023/03/07 12:48:26;;;;;;;11.75;9.52;;;;;;;;;;5055026;28;20025;-62
2023/03/07 12:51:10;;;;;;;9.23;7.90;;;;;;;;;;5055345;28;20067;-62
2023/03/07 12:53:53;;;;;;;11.35;9.75;;;;;;;;;;5053149;28;20021;-62
2023/03/07 12:56:19;;;;;;;11.38;8.90;;;;;;;;;;5048050;28;20037;-62
2023/03/07 12:58:59;;;;;;;13.13;8.77;;;;;;;;;;5040187;28;20021;-63
2023/03/07 13:01:26;;;;;;;11.80;9.23;;;;;;;;;;5043424;28;20025;-62
2023/03/07 13:04:21;;;;;;;8.90;7.60;;;;;;;;;;5050356;28;20032;-61
2023/03/07 13:06:47;;;;;;;11.60;8.13;;;;;;;;;;5044547;28;20041;-62
2023/03/07 13:09:18;;;;;;;13.45;7.95;;;;;;;;;;5053758;28;20025;-61
2023/03/07 13:12:07;;;;;;;10.63;7.60;;;;;;;;;;5053300;28;20055;-65
2023/03/07 13:14:38;;;;;;;8.65;6.90;;;;;;;;;;5048076;28;20079;-64
2023/03/07 13:17:04;;;;;;;9.35;7.35;;;;;;;;;;5053175;28;20425;-63
2023/03/07 13:19:35;;;;;;;9.63;7.65;;;;;;;;;;5031617;28;20081;-60
2023/03/07 13:22:20;;;;;;;9.98;8.07;;;;;;;;;;5053401;28;20029;-63
2023/03/07 13:24:46;;;;;;;10.88;8.05;;;;;;;;;;5050649;28;20111;-62
2023/03/07 13:27:16;;;;;;;9.35;7.57;;;;;;;;;;5036545;28;20071;-63
2023/03/07 13:30:00;;;;;;;10.38;7.60;;;;;;;;;;5053955;28;20053;-64
2023/03/07 13:32:44;;;;;;;10.38;7.38;;;;;;;;;;5052069;28;20033;-64
2023/03/07 13:35:09;;;;;;;12.57;8.57;;;;;;;;;;5053435;28;20166;-64
2023/03/07 13:37:52;;;;;;;10.35;8.13;;;;;;;;;;5045902;28;20363;-63
2023/03/07 13:40:25;;;;;;;8.93;7.30;;;;;;;;;;5043814;28;20029;-63
2023/03/07 13:42:50;;;;;;;10.95;8.05;;;;;;;;;;5047991;28;20113;-64
2023/03/07 13:45:34;;;;;;;8.43;7.53;;;;;;;;;;5047017;28;20112;-64
2023/03/07 13:48:00;;;;;;;12.10;8.25;;;;;;;;;;5041297;28;20044;-62
2023/03/07 13:50:34;;;;;;;9.57;7.78;;;;;;;;;;5052501;28;20016;-61
2023/03/07 13:53:38;;;;;;;10.50;8.35;;;;;;;;;;5035778;28;20060;-61
2023/03/07 13:56:15;;;;;;;12.27;8.98;;;;;;;;;;5050763;28;20035;-62
2023/03/07 13:58:58;;;;;;;13.80;9.32;;;;;;;;;;5045141;28;20044;-62
2023/03/07 14:01:27;;;;;;;13.18;10.32;;;;;;;;;;5050434;28;20053;-62
2023/03/07 14:04:12;;;;;;;12.75;10.05;;;;;;;;;;5048638;28;20028;-62
2023/03/07 14:06:47;;;;;;;12.40;10.60;;;;;;;;;;5046421;28;20033;-62
2023/03/07 14:09:32;;;;;;;14.90;11.40;;;;;;;;;;5047711;28;20021;-62
2023/03/07 14:12:08;;;;;;;13.30;10.75;;;;;;;;;;5048837;28;20131;-62
2023/03/07 14:14:36;;;;;;;14.63;11.80;;;;;;;;;;5051075;28;20040;-61
2023/03/07 14:17:07;;;;;;;15.05;11.73;;;;;;;;;;5049344;28;20052;-62
2023/03/07 14:19:47;;;;;;;16.08;12.77;;;;;;;;;;5039276;28;20040;-62
2023/03/07 14:22:19;;;;;;;18.98;15.02;;;;;;;;;;5031277;28;20471;-64
2023/03/07 14:24:56;;;;;;;15.18;12.38;;;;;;;;;;5046277;28;20167;-64
2023/03/07 14:27:22;;;;;;;14.10;11.65;;;;;;;;;;5044058;28;20049;-64